createdAt,value
2023-07-21T00:02:03.822Z,2.47
2023-07-21T00:04:32.084Z,2.88
2023-07-21T00:07:00.401Z,5.60
2023-07-21T00:09:28.687Z,3.45
2023-07-21T00:11:57.012Z,2.88
2023-07-21T00:14:25.848Z,2.88
2023-07-21T00:16:54.895Z,3.35
2023-07-21T00:19:24.683Z,2.60
2023-07-21T00:21:53.154Z,4.68
2023-07-21T00:24:21.787Z,4.00
2023-07-21T00:26:50.077Z,3.22
2023-07-21T00:29:18.361Z,3.08
2023-07-21T00:31:50.425Z,2.70
2023-07-21T00:34:20.909Z,2.40
2023-07-21T00:36:50.641Z,2.70
2023-07-21T00:39:18.925Z,2.80
2023-07-21T00:41:47.214Z,2.93
2023-07-21T00:44:15.485Z,3.37
2023-07-21T00:46:44.378Z,2.80
2023-07-21T00:49:12.813Z,3.00
2023-07-21T00:51:41.783Z,3.67
2023-07-21T00:54:11.445Z,3.00
2023-07-21T00:56:39.832Z,3.20
2023-07-21T00:59:08.134Z,5.43
2023-07-21T01:01:36.746Z,5.83
2023-07-21T01:04:05.470Z,3.77
2023-07-21T01:06:34.202Z,2.80
2023-07-21T01:09:05.534Z,3.10
2023-07-21T01:11:36.974Z,3.43
2023-07-21T01:14:06.309Z,5.20
2023-07-21T01:16:38.288Z,2.70
2023-07-21T01:19:07.370Z,2.80
2023-07-21T01:21:38.960Z,3.92
2023-07-21T01:24:10.103Z,3.53
2023-07-21T01:26:40.488Z,4.78
2023-07-21T01:29:09.505Z,2.70
2023-07-21T01:31:38.774Z,4.83
2023-07-21T01:34:07.735Z,2.83
2023-07-21T01:36:37.754Z,2.93
2023-07-21T01:39:07.167Z,3.53
2023-07-21T01:41:36.027Z,3.10
2023-07-21T01:44:06.366Z,4.57
2023-07-21T01:46:34.833Z,4.40
2023-07-21T01:49:03.414Z,3.83
2023-07-21T01:51:32.334Z,3.23
2023-07-21T01:54:02.477Z,3.40
2023-07-21T01:56:33.425Z,3.50
2023-07-21T01:59:03.449Z,3.60
2023-07-21T02:01:34.096Z,4.93
2023-07-21T02:04:02.555Z,5.40
2023-07-21T02:06:31.895Z,3.40
2023-07-21T02:09:00.210Z,3.10
2023-07-21T02:11:28.716Z,5.40
2023-07-21T02:13:57.346Z,3.37
2023-07-21T02:16:25.914Z,3.83
2023-07-21T02:18:56.614Z,3.93
2023-07-21T02:21:24.914Z,4.17
2023-07-21T02:23:53.206Z,3.30
2023-07-21T02:26:23.175Z,3.27
2023-07-21T02:28:51.806Z,3.47
2023-07-21T02:31:22.502Z,4.93
2023-07-21T02:33:50.878Z,3.50
2023-07-21T02:36:20.483Z,3.20
2023-07-21T02:38:49.213Z,3.33
2023-07-21T02:41:17.491Z,3.30
2023-07-21T02:43:45.754Z,3.70
2023-07-21T02:46:15.404Z,3.60
2023-07-21T02:48:44.759Z,3.90
2023-07-21T02:51:12.973Z,4.40
2023-07-21T02:53:42.561Z,4.20
2023-07-21T02:56:11.130Z,4.20
2023-07-21T02:58:39.513Z,4.23
2023-07-21T03:01:07.832Z,4.33
2023-07-21T03:03:36.384Z,4.00
2023-07-21T03:06:04.748Z,5.33
2023-07-21T03:08:33.025Z,4.07
2023-07-21T03:11:02.728Z,3.80
2023-07-21T03:13:31.198Z,3.73
2023-07-21T03:16:01.673Z,3.57
2023-07-21T03:18:30.334Z,3.40
2023-07-21T03:21:01.660Z,4.13
2023-07-21T03:23:29.939Z,4.17
2023-07-21T03:25:58.201Z,4.60
2023-07-21T03:28:28.088Z,4.40
2023-07-21T03:30:59.734Z,3.90
2023-07-21T03:33:28.362Z,4.07
2023-07-21T03:36:01.892Z,6.07
2023-07-21T03:38:30.449Z,3.97
2023-07-21T03:41:02.842Z,4.90
2023-07-21T03:43:32.552Z,3.93
2023-07-21T03:46:01.110Z,4.77
2023-07-21T03:48:29.779Z,4.90
2023-07-21T03:51:00.122Z,4.57
2023-07-21T03:53:36.466Z,5.23
2023-07-21T03:56:05.642Z,5.93
2023-07-21T03:58:36.008Z,5.30
2023-07-21T04:01:04.325Z,4.10
2023-07-21T04:03:32.990Z,4.20
2023-07-21T04:06:08.349Z,4.97
2023-07-21T04:08:36.921Z,6.13
2023-07-21T04:11:05.477Z,4.30
2023-07-21T04:13:35.109Z,4.57
2023-07-21T04:16:03.384Z,8.00
2023-07-21T04:18:31.725Z,4.30
2023-07-21T04:21:00.017Z,4.53
2023-07-21T04:23:28.277Z,4.40
2023-07-21T04:25:56.562Z,5.00
2023-07-21T04:28:24.822Z,4.37
2023-07-21T04:30:57.299Z,7.50
2023-07-21T04:33:25.698Z,4.90
2023-07-21T04:35:53.968Z,4.60
2023-07-21T04:38:23.193Z,4.20
2023-07-21T04:40:51.646Z,4.37
2023-07-21T04:43:19.924Z,5.87
2023-07-21T04:45:48.203Z,5.53
2023-07-21T04:48:17.926Z,4.60
2023-07-21T04:50:46.181Z,4.67
2023-07-21T04:53:14.753Z,5.70
2023-07-21T04:55:43.014Z,4.37
2023-07-21T04:58:11.262Z,7.63
2023-07-21T05:00:39.601Z,4.80
2023-07-21T05:03:07.994Z,5.10
2023-07-21T05:05:39.016Z,6.07
2023-07-21T05:08:07.685Z,4.87
2023-07-21T05:10:36.565Z,5.07
2023-07-21T05:13:07.185Z,7.30
2023-07-21T05:15:36.550Z,5.73
2023-07-21T05:18:04.901Z,7.17
2023-07-21T05:20:33.247Z,6.70
2023-07-21T05:23:02.865Z,5.17
2023-07-21T05:25:31.164Z,5.90
2023-07-21T05:27:59.396Z,6.87
2023-07-21T05:30:27.688Z,6.70
2023-07-21T05:32:57.650Z,5.17
2023-07-21T05:35:27.722Z,5.60
2023-07-21T05:37:58.983Z,5.13
2023-07-21T05:40:28.555Z,6.23
2023-07-21T05:42:56.854Z,4.63
2023-07-21T05:45:25.178Z,6.43
2023-07-21T05:47:53.438Z,9.47
2023-07-21T05:50:21.747Z,6.13
2023-07-21T05:52:52.291Z,9.43
2023-07-21T05:55:20.510Z,9.30
2023-07-21T05:57:50.128Z,8.80
2023-07-21T06:00:19.848Z,5.97
2023-07-21T06:02:48.406Z,6.00
2023-07-21T06:05:16.745Z,6.63
2023-07-21T06:07:45.788Z,8.60
2023-07-21T06:10:14.207Z,6.30
2023-07-21T06:12:42.502Z,4.63
2023-07-21T06:15:12.845Z,5.50
2023-07-21T06:17:41.550Z,6.10
2023-07-21T06:20:11.194Z,4.78
2023-07-21T06:22:39.512Z,6.80
2023-07-21T06:25:09.966Z,7.55
2023-07-21T06:27:39.907Z,8.73
2023-07-21T06:30:08.906Z,8.50
2023-07-21T06:32:38.638Z,5.75
2023-07-21T06:35:07.582Z,7.57
2023-07-21T06:37:35.895Z,8.50
2023-07-21T06:40:05.216Z,4.93
2023-07-21T06:42:33.485Z,4.63
2023-07-21T06:45:01.819Z,5.20
2023-07-21T06:47:30.640Z,4.28
2023-07-21T06:50:00.885Z,4.72
2023-07-21T06:52:29.241Z,4.50
2023-07-21T06:54:59.255Z,4.50
2023-07-21T06:57:27.535Z,4.60
2023-07-21T06:59:56.062Z,4.50
2023-07-21T07:02:24.523Z,7.47
2023-07-21T07:04:55.452Z,5.38
2023-07-21T07:07:26.171Z,3.97
2023-07-21T07:09:54.587Z,5.15
2023-07-21T07:12:22.912Z,3.67
2023-07-21T07:14:53.169Z,4.97
2023-07-21T07:17:21.675Z,4.22
2023-07-21T07:19:50.063Z,6.60
2023-07-21T07:22:18.914Z,3.65
2023-07-21T07:24:51.066Z,5.75
2023-07-21T07:27:19.487Z,3.70
2023-07-21T07:29:48.140Z,6.97
2023-07-21T07:32:16.902Z,5.97
2023-07-21T07:34:45.213Z,3.33
2023-07-21T07:37:13.469Z,4.25
2023-07-21T07:39:41.701Z,3.50
2023-07-21T07:42:11.925Z,6.15
2023-07-21T07:44:40.411Z,3.25
2023-07-21T07:47:09.550Z,2.90
2023-07-21T07:49:38.091Z,3.45
2023-07-21T07:52:09.602Z,2.60
2023-07-21T07:54:38.210Z,2.60
2023-07-21T07:57:08.886Z,2.83
2023-07-21T07:59:38.528Z,3.72
2023-07-21T08:02:07.194Z,3.88
2023-07-21T08:04:35.788Z,2.58
2023-07-21T08:07:04.144Z,2.30
2023-07-21T08:09:32.630Z,3.47
2023-07-21T08:12:00.936Z,3.03
2023-07-21T08:14:31.542Z,3.22
2023-07-21T08:17:09.783Z,2.75
2023-07-21T08:19:41.425Z,2.83
2023-07-21T08:22:11.454Z,2.60
2023-07-21T08:24:39.910Z,3.05
2023-07-21T08:27:16.582Z,3.58
2023-07-21T08:29:48.008Z,2.70
2023-07-21T08:32:19.901Z,2.72
2023-07-21T08:34:48.187Z,2.78
2023-07-21T08:37:21.683Z,2.60
2023-07-21T08:39:49.998Z,2.42
2023-07-21T08:42:21.443Z,3.80
2023-07-21T08:44:50.140Z,2.97
2023-07-21T08:47:20.121Z,2.83
2023-07-21T08:49:50.036Z,2.80
2023-07-21T08:52:18.609Z,3.15
2023-07-21T08:54:47.110Z,2.65
2023-07-21T08:57:16.071Z,2.40
2023-07-21T08:59:47.569Z,2.45
2023-07-21T09:02:16.305Z,4.07
2023-07-21T09:04:47.286Z,4.32
2023-07-21T09:07:18.922Z,6.05
2023-07-21T09:09:52.756Z,2.95
2023-07-21T09:12:21.322Z,2.83
2023-07-21T09:14:49.721Z,3.85
2023-07-21T09:17:18.237Z,2.45
2023-07-21T09:19:48.231Z,3.33
2023-07-21T09:22:16.540Z,3.35
2023-07-21T09:24:50.957Z,4.15
2023-07-21T09:27:20.386Z,5.22
2023-07-21T09:29:49.013Z,3.40
2023-07-21T09:32:17.832Z,3.97
2023-07-21T09:34:57.679Z,2.45
2023-07-21T09:37:28.029Z,2.60
2023-07-21T09:39:58.186Z,3.72
2023-07-21T09:42:26.942Z,3.13
2023-07-21T09:44:56.443Z,2.67
2023-07-21T09:47:25.370Z,3.95
2023-07-21T09:50:10.628Z,2.78
2023-07-21T09:52:41.065Z,3.72
2023-07-21T09:55:11.374Z,3.95
2023-07-21T09:57:42.879Z,2.55
2023-07-21T10:00:16.906Z,3.38
2023-07-21T10:02:49.390Z,3.30
2023-07-21T10:05:19.891Z,2.70
2023-07-21T10:07:58.351Z,2.58
2023-07-21T10:10:28.602Z,2.80
2023-07-21T10:12:59.638Z,2.88
2023-07-21T10:15:35.659Z,2.92
2023-07-21T10:18:07.953Z,3.10
2023-07-21T10:20:41.981Z,2.40
2023-07-21T10:23:10.858Z,2.58
2023-07-21T10:25:57.478Z,2.22
2023-07-21T10:28:26.654Z,2.47
2023-07-21T10:30:54.979Z,3.25
2023-07-21T10:33:30.989Z,2.60
2023-07-21T10:36:14.841Z,4.05
2023-07-21T10:38:43.451Z,3.10
2023-07-21T10:41:11.720Z,5.57
2023-07-21T10:43:40.023Z,3.45
2023-07-21T10:46:08.464Z,3.10
2023-07-21T10:48:37.576Z,2.97
2023-07-21T10:51:06.160Z,2.75
2023-07-21T10:53:35.796Z,2.90
2023-07-21T10:56:08.610Z,2.50
2023-07-21T10:58:37.036Z,2.42
2023-07-21T11:01:05.481Z,2.25
2023-07-21T11:03:34.099Z,2.50
2023-07-21T11:06:03.511Z,2.53
2023-07-21T11:08:31.842Z,2.72
2023-07-21T11:11:01.623Z,2.53
2023-07-21T11:13:30.011Z,2.75
2023-07-21T11:15:58.628Z,2.40
2023-07-21T11:18:26.994Z,2.97
2023-07-21T11:20:55.922Z,2.63
2023-07-21T11:23:24.626Z,2.80
2023-07-21T11:26:04.538Z,2.60
2023-07-21T11:28:33.738Z,3.05
2023-07-21T11:31:07.234Z,3.13
2023-07-21T11:33:42.321Z,22.95
2023-07-21T11:36:16.798Z,4.40
2023-07-21T11:38:58.449Z,2.80
2023-07-21T11:41:46.800Z,3.08
2023-07-21T11:44:19.463Z,2.60
2023-07-21T11:46:55.909Z,3.63
2023-07-21T11:49:26.949Z,3.15
2023-07-21T11:51:55.754Z,12.45
2023-07-21T11:54:24.541Z,3.83
2023-07-21T11:56:54.859Z,3.00
2023-07-21T11:59:24.028Z,4.07
2023-07-21T12:01:52.751Z,3.10
2023-07-21T12:04:24.685Z,4.22
2023-07-21T12:06:55.121Z,2.67
2023-07-21T12:09:24.424Z,3.08
2023-07-21T12:11:55.161Z,2.70
2023-07-21T12:14:24.933Z,3.55
2023-07-21T12:16:56.783Z,2.80
2023-07-21T12:19:25.728Z,3.08
2023-07-21T12:21:54.452Z,2.90
2023-07-21T12:24:23.126Z,3.35
2023-07-21T12:26:51.647Z,2.58
2023-07-21T12:29:33.064Z,2.20
2023-07-21T12:32:07.718Z,2.85
2023-07-21T12:34:36.571Z,2.20
2023-07-21T12:37:05.102Z,2.08
2023-07-21T12:39:33.359Z,2.20
2023-07-21T12:42:01.655Z,2.00
2023-07-21T12:44:31.435Z,2.83
2023-07-21T12:46:59.791Z,3.10
2023-07-21T12:49:28.505Z,2.17
2023-07-21T12:51:56.848Z,2.33
2023-07-21T12:54:25.138Z,2.42
2023-07-21T12:56:53.381Z,1.98
2023-07-21T12:59:21.650Z,2.45
2023-07-21T13:01:51.416Z,2.13
2023-07-21T13:04:21.320Z,1.92
2023-07-21T13:06:50.021Z,1.90
2023-07-21T13:09:18.313Z,4.25
2023-07-21T13:11:46.584Z,3.55
2023-07-21T13:14:14.980Z,1.77
2023-07-21T13:16:43.926Z,2.67
2023-07-21T13:19:14.706Z,2.35
2023-07-21T13:21:43.090Z,1.90
2023-07-21T13:24:11.374Z,1.77
2023-07-21T13:26:41.503Z,2.58
2023-07-21T13:29:11.707Z,1.98
2023-07-21T13:31:40.276Z,1.92
2023-07-21T13:34:08.583Z,2.03
2023-07-21T13:36:38.367Z,2.13
2023-07-21T13:39:06.636Z,2.78
2023-07-21T13:41:34.912Z,1.83
2023-07-21T13:44:03.206Z,1.90
2023-07-21T13:46:31.889Z,2.50
2023-07-21T13:49:00.445Z,2.40
2023-07-21T13:51:29.160Z,3.58
2023-07-21T13:53:58.920Z,3.05
2023-07-21T13:56:28.143Z,2.25
2023-07-21T13:58:56.720Z,2.00
2023-07-21T14:01:25.350Z,2.40
2023-07-21T14:03:53.681Z,2.50
2023-07-21T14:06:21.982Z,2.10
2023-07-21T14:08:50.260Z,2.78
2023-07-21T14:11:19.901Z,2.35
2023-07-21T14:13:48.810Z,1.95
2023-07-21T14:16:17.215Z,2.30
2023-07-21T14:18:45.518Z,2.75
2023-07-21T14:21:13.894Z,1.90
2023-07-21T14:23:42.125Z,2.30
2023-07-21T14:26:10.422Z,2.13
2023-07-21T14:28:40.106Z,2.40
2023-07-21T14:31:08.446Z,2.58
2023-07-21T14:33:37.238Z,1.90
2023-07-21T14:36:06.086Z,5.18
2023-07-21T14:38:36.241Z,3.20
2023-07-21T14:41:04.945Z,3.25
2023-07-21T14:43:34.923Z,4.75
2023-07-21T14:46:05.341Z,3.20
2023-07-21T14:48:33.591Z,5.90
2023-07-21T14:51:02.384Z,6.20
2023-07-21T14:53:30.763Z,6.55
2023-07-21T14:55:59.083Z,4.82
2023-07-21T14:58:27.374Z,4.18
2023-07-21T15:00:55.848Z,4.47
2023-07-21T15:03:25.565Z,4.13
2023-07-21T15:05:53.925Z,5.35
2023-07-21T15:08:23.088Z,4.25
2023-07-21T15:10:51.383Z,4.10
2023-07-21T15:13:19.757Z,4.30
2023-07-21T15:15:48.386Z,3.78
2023-07-21T15:18:16.715Z,3.95
2023-07-21T15:20:46.604Z,3.70
2023-07-21T15:23:14.908Z,3.92
2023-07-21T15:25:43.813Z,3.80
2023-07-21T15:28:12.347Z,3.85
2023-07-21T15:30:42.516Z,3.58
2023-07-21T15:33:12.713Z,4.03
2023-07-21T15:35:46.731Z,4.30
2023-07-21T15:38:15.456Z,5.70
2023-07-21T15:40:43.945Z,5.55
2023-07-21T15:43:12.290Z,7.07
2023-07-21T15:45:41.604Z,6.50
2023-07-21T15:48:10.923Z,6.30
2023-07-21T15:50:39.248Z,9.05
2023-07-21T15:53:12.145Z,7.32
2023-07-21T15:55:40.407Z,7.65
2023-07-21T15:58:08.752Z,5.32
2023-07-21T16:00:37.082Z,5.50
2023-07-21T16:03:06.180Z,4.70
2023-07-21T16:05:34.556Z,5.13
2023-07-21T16:08:03.060Z,4.35
2023-07-21T16:10:32.955Z,3.50
2023-07-21T16:13:01.255Z,4.25
2023-07-21T16:15:29.523Z,3.30
2023-07-21T16:17:57.870Z,4.25
2023-07-21T16:20:26.364Z,3.40
2023-07-21T16:22:54.796Z,6.65
2023-07-21T16:25:23.635Z,3.38
2023-07-21T16:27:53.242Z,4.32
2023-07-21T16:30:21.684Z,4.57
2023-07-21T16:32:50.059Z,3.90
2023-07-21T16:35:18.437Z,3.75
2023-07-21T16:37:46.686Z,7.40
2023-07-21T16:40:17.124Z,3.85
2023-07-21T16:42:45.672Z,3.53
2023-07-21T16:45:15.801Z,4.15
2023-07-21T16:47:44.387Z,4.60
2023-07-21T16:50:13.281Z,3.67
2023-07-21T16:52:41.871Z,3.67
2023-07-21T16:55:10.594Z,5.68
2023-07-21T16:57:38.878Z,3.50
2023-07-21T17:00:13.097Z,3.47
2023-07-21T17:02:43.144Z,3.17
2023-07-21T17:07:42.730Z,3.53
2023-07-21T17:10:11.343Z,3.58
2023-07-21T17:12:39.648Z,3.72
2023-07-21T17:15:10.756Z,3.83
2023-07-21T17:17:39.085Z,3.40
2023-07-21T17:20:12.797Z,5.82
2023-07-21T17:22:45.194Z,6.65
2023-07-21T17:25:13.466Z,3.58
2023-07-21T17:27:41.810Z,3.35
2023-07-21T17:30:10.821Z,4.93
2023-07-21T17:32:43.835Z,3.40
2023-07-21T17:35:14.320Z,3.53
2023-07-21T17:37:43.326Z,5.60
2023-07-21T17:40:12.679Z,3.90
2023-07-21T17:42:41.968Z,5.20
2023-07-21T17:45:11.902Z,3.63
2023-07-21T17:47:42.506Z,4.72
2023-07-21T17:50:11.402Z,7.82
2023-07-21T17:52:42.482Z,5.32
2023-07-21T17:55:11.261Z,3.58
2023-07-21T17:57:41.601Z,4.28
2023-07-21T18:00:12.586Z,8.35
2023-07-21T18:02:41.963Z,4.53
2023-07-21T18:05:10.863Z,3.17
2023-07-21T18:07:40.888Z,3.63
2023-07-21T18:10:12.140Z,2.90
2023-07-21T18:12:40.521Z,6.07
2023-07-21T18:15:09.364Z,3.97
2023-07-21T18:17:37.714Z,3.67
2023-07-21T18:20:06.743Z,3.40
2023-07-21T18:22:35.226Z,3.10
2023-07-21T18:25:03.589Z,2.80
2023-07-21T18:27:33.329Z,2.30
2023-07-21T18:30:01.810Z,3.38
2023-07-21T18:32:30.325Z,2.58
2023-07-21T18:34:58.757Z,2.95
2023-07-21T18:37:27.097Z,3.28
2023-07-21T18:39:57.152Z,2.85
2023-07-21T18:42:25.448Z,2.60
2023-07-21T18:44:55.234Z,2.95
2023-07-21T18:47:23.648Z,2.85
2023-07-21T18:49:52.141Z,2.90
2023-07-21T18:52:20.414Z,3.28
2023-07-21T18:54:50.024Z,3.38
2023-07-21T18:57:18.380Z,3.03
2023-07-21T18:59:46.765Z,3.10
2023-07-21T19:02:16.517Z,3.33
2023-07-21T19:04:46.009Z,3.22
2023-07-21T19:07:14.399Z,4.05
2023-07-21T19:09:42.714Z,3.53
2023-07-21T19:12:11.353Z,3.90
2023-07-21T19:14:39.601Z,3.60
2023-07-21T19:17:08.019Z,3.65
2023-07-21T19:19:37.712Z,3.40
2023-07-21T19:22:06.291Z,4.35
2023-07-21T19:24:34.592Z,3.78
2023-07-21T19:27:02.871Z,3.95
2023-07-21T19:29:31.391Z,3.75
2023-07-21T19:31:59.719Z,3.53
2023-07-21T19:34:31.128Z,3.83
2023-07-21T19:37:00.928Z,4.50
2023-07-21T19:39:29.973Z,4.07
2023-07-21T19:41:58.286Z,5.30
2023-07-21T19:44:26.575Z,4.23
2023-07-21T19:46:55.013Z,4.83
2023-07-21T19:49:24.168Z,4.50
2023-07-21T19:51:52.931Z,5.07
2023-07-21T19:54:22.649Z,5.38
2023-07-21T19:56:51.010Z,5.40
2023-07-21T19:59:19.441Z,7.80
2023-07-21T20:01:48.212Z,7.45
2023-07-21T20:04:16.523Z,5.60
2023-07-21T20:06:44.839Z,5.40
2023-07-21T20:09:13.097Z,6.07
2023-07-21T20:11:42.757Z,5.00
2023-07-21T20:14:11.067Z,5.28
2023-07-21T20:16:39.522Z,7.40
2023-07-21T20:19:07.951Z,6.83
2023-07-21T20:21:36.251Z,7.20
2023-07-21T20:24:15.447Z,5.90
2023-07-21T20:26:45.203Z,6.83
2023-07-21T20:29:14.156Z,8.00
2023-07-21T20:31:42.509Z,6.67
2023-07-21T20:34:10.840Z,6.90
2023-07-21T20:36:39.645Z,8.80
2023-07-21T20:39:08.174Z,6.80
2023-07-21T20:41:36.435Z,7.37
2023-07-21T20:44:06.199Z,6.90
2023-07-21T20:46:34.628Z,7.03
2023-07-21T20:49:04.080Z,7.37
2023-07-21T20:51:32.506Z,6.83
2023-07-21T20:54:00.788Z,9.83
2023-07-21T20:56:29.716Z,7.83
2023-07-21T20:58:58.078Z,7.33
2023-07-21T21:01:27.851Z,11.43
2023-07-21T21:03:56.208Z,8.03
2023-07-21T21:06:24.800Z,7.67
2023-07-21T21:08:53.342Z,10.23
2023-07-21T21:11:21.669Z,8.57
2023-07-21T21:13:50.030Z,8.27
2023-07-21T21:16:18.361Z,8.17
2023-07-21T21:18:48.104Z,9.00
2023-07-21T21:21:16.349Z,7.90
2023-07-21T21:23:44.585Z,9.43
2023-07-21T21:26:13.387Z,10.77
2023-07-21T21:28:41.599Z,9.47
2023-07-21T21:31:09.892Z,9.13
2023-07-21T21:33:38.229Z,11.90
2023-07-21T21:36:07.985Z,9.87
2023-07-21T21:38:36.317Z,10.03
2023-07-21T21:41:04.601Z,10.20
2023-07-21T21:43:33.042Z,10.40
2023-07-21T21:46:03.444Z,10.87
2023-07-21T21:48:31.718Z,10.33
2023-07-21T21:51:00.094Z,9.93
2023-07-21T21:53:29.715Z,10.53
2023-07-21T21:55:57.952Z,10.80
2023-07-21T21:58:26.348Z,10.10
2023-07-21T22:00:54.691Z,9.93
2023-07-21T22:03:23.033Z,9.80
2023-07-21T22:05:51.443Z,11.07
2023-07-21T22:08:19.730Z,10.40
2023-07-21T22:10:49.910Z,9.87
2023-07-21T22:13:18.567Z,9.73
2023-07-21T22:15:46.858Z,10.23
2023-07-21T22:18:15.172Z,11.17
2023-07-21T22:20:43.581Z,10.37
2023-07-21T22:23:11.885Z,9.40
2023-07-21T22:25:40.179Z,9.77
2023-07-21T22:28:09.846Z,9.00
2023-07-21T22:30:38.190Z,9.23
2023-07-21T22:33:06.604Z,9.07
2023-07-21T22:35:34.967Z,8.63
2023-07-21T22:38:03.730Z,9.80
2023-07-21T22:40:36.299Z,8.50
2023-07-21T22:43:05.791Z,8.83
2023-07-21T22:45:35.498Z,8.73
2023-07-21T22:48:03.789Z,9.73
2023-07-21T22:50:32.076Z,9.57
2023-07-21T22:53:00.701Z,9.57
2023-07-21T22:55:28.989Z,8.97
2023-07-21T22:57:57.325Z,8.73
2023-07-21T23:00:25.772Z,9.13
2023-07-21T23:02:55.612Z,11.33
2023-07-21T23:05:24.037Z,8.67
2023-07-21T23:07:52.359Z,8.27
2023-07-21T23:10:20.804Z,9.17
2023-07-21T23:12:49.191Z,10.43
2023-07-21T23:15:17.505Z,8.27
2023-07-21T23:17:45.779Z,8.70
2023-07-21T23:20:15.464Z,7.77
2023-07-21T23:22:43.792Z,9.87
2023-07-21T23:25:12.636Z,9.03
2023-07-21T23:27:40.941Z,9.50
2023-07-21T23:30:11.136Z,8.80
2023-07-21T23:32:39.636Z,7.27
2023-07-21T23:35:08.551Z,9.37
2023-07-21T23:37:38.406Z,7.27
2023-07-21T23:40:11.038Z,9.33
2023-07-21T23:42:39.722Z,7.70
2023-07-21T23:45:08.693Z,7.10
2023-07-21T23:47:36.973Z,9.53
2023-07-21T23:50:05.830Z,7.13
2023-07-21T23:52:34.137Z,7.30
2023-07-21T23:55:04.057Z,9.60
2023-07-21T23:57:32.440Z,7.60
